sensor_id;sensor_type;location;lat;lon;timestamp;P1;durP1;ratioP1;P2;durP2;ratioP2
31390;SDS011;18022;45.492;11.548;2023-02-19T00:00:31;145.23;;;80.10;;
31390;SDS011;18022;45.492;11.548;2023-02-19T00:02:57;139.65;;;79.55;;
31390;SDS011;18022;45.492;11.548;2023-02-19T00:05:23;139.85;;;80.40;;
31390;SDS011;18022;45.492;11.548;2023-02-19T00:07:49;138.57;;;78.20;;
31390;SDS011;18022;45.492;11.548;2023-02-19T00:10:15;142.23;;;81.80;;
31390;SDS011;18022;45.492;11.548;2023-02-19T00:12:41;144.68;;;81.38;;
31390;SDS011;18022;45.492;11.548;2023-02-19T00:15:07;146.98;;;83.32;;
31390;SDS011;18022;45.492;11.548;2023-02-19T00:17:33;150.00;;;84.18;;
31390;SDS011;18022;45.492;11.548;2023-02-19T00:19:59;143.90;;;82.57;;
31390;SDS011;18022;45.492;11.548;2023-02-19T00:22:26;141.30;;;81.35;;
31390;SDS011;18022;45.492;11.548;2023-02-19T00:24:52;141.25;;;79.07;;
31390;SDS011;18022;45.492;11.548;2023-02-19T00:27:18;146.27;;;81.70;;
31390;SDS011;18022;45.492;11.548;2023-02-19T00:29:44;142.23;;;78.95;;
31390;SDS011;18022;45.492;11.548;2023-02-19T00:32:10;145.85;;;82.90;;
31390;SDS011;18022;45.492;11.548;2023-02-19T00:34:36;146.35;;;84.93;;
31390;SDS011;18022;45.492;11.548;2023-02-19T00:37:02;149.07;;;85.82;;
31390;SDS011;18022;45.492;11.548;2023-02-19T00:39:28;142.25;;;79.57;;
31390;SDS011;18022;45.492;11.548;2023-02-19T00:41:54;132.75;;;75.75;;
31390;SDS011;18022;45.492;11.548;2023-02-19T00:44:20;129.35;;;75.32;;
31390;SDS011;18022;45.492;11.548;2023-02-19T00:46:46;126.88;;;74.05;;
31390;SDS011;18022;45.492;11.548;2023-02-19T00:49:21;141.45;;;78.50;;
31390;SDS011;18022;45.492;11.548;2023-02-19T00:51:48;136.10;;;77.30;;
31390;SDS011;18022;45.492;11.548;2023-02-19T00:54:14;142.88;;;80.78;;
31390;SDS011;18022;45.492;11.548;2023-02-19T00:56:40;153.15;;;87.22;;
31390;SDS011;18022;45.492;11.548;2023-02-19T00:59:07;141.95;;;83.82;;
31390;SDS011;18022;45.492;11.548;2023-02-19T01:01:33;143.00;;;82.05;;
31390;SDS011;18022;45.492;11.548;2023-02-19T01:03:59;142.60;;;82.03;;
31390;SDS011;18022;45.492;11.548;2023-02-19T01:06:25;135.25;;;77.28;;
31390;SDS011;18022;45.492;11.548;2023-02-19T01:08:54;147.68;;;80.85;;
31390;SDS011;18022;45.492;11.548;2023-02-19T01:11:20;145.98;;;82.22;;
31390;SDS011;18022;45.492;11.548;2023-02-19T01:13:46;141.65;;;82.63;;
31390;SDS011;18022;45.492;11.548;2023-02-19T01:16:14;158.15;;;88.65;;
31390;SDS011;18022;45.492;11.548;2023-02-19T01:18:41;160.32;;;89.78;;
31390;SDS011;18022;45.492;11.548;2023-02-19T01:21:08;146.85;;;85.30;;
31390;SDS011;18022;45.492;11.548;2023-02-19T01:23:34;137.60;;;79.82;;
31390;SDS011;18022;45.492;11.548;2023-02-19T01:26:04;133.00;;;75.43;;
31390;SDS011;18022;45.492;11.548;2023-02-19T01:28:31;136.95;;;79.07;;
31390;SDS011;18022;45.492;11.548;2023-02-19T01:31:04;145.77;;;81.20;;
31390;SDS011;18022;45.492;11.548;2023-02-19T01:33:30;141.25;;;83.20;;
31390;SDS011;18022;45.492;11.548;2023-02-19T01:35:56;140.60;;;81.95;;
31390;SDS011;18022;45.492;11.548;2023-02-19T01:38:22;138.95;;;78.75;;
31390;SDS011;18022;45.492;11.548;2023-02-19T01:40:55;134.80;;;77.65;;
31390;SDS011;18022;45.492;11.548;2023-02-19T01:43:21;137.23;;;77.45;;
31390;SDS011;18022;45.492;11.548;2023-02-19T01:45:47;147.05;;;81.40;;
31390;SDS011;18022;45.492;11.548;2023-02-19T01:48:15;144.40;;;80.25;;
31390;SDS011;18022;45.492;11.548;2023-02-19T01:50:52;151.43;;;85.75;;
31390;SDS011;18022;45.492;11.548;2023-02-19T01:53:21;155.55;;;85.70;;
31390;SDS011;18022;45.492;11.548;2023-02-19T01:55:50;147.95;;;84.82;;
31390;SDS011;18022;45.492;11.548;2023-02-19T01:58:17;154.98;;;88.82;;
31390;SDS011;18022;45.492;11.548;2023-02-19T02:00:43;156.20;;;86.25;;
31390;SDS011;18022;45.492;11.548;2023-02-19T02:03:09;152.27;;;84.80;;
31390;SDS011;18022;45.492;11.548;2023-02-19T02:05:47;147.65;;;82.88;;
31390;SDS011;18022;45.492;11.548;2023-02-19T02:08:15;144.48;;;83.82;;
31390;SDS011;18022;45.492;11.548;2023-02-19T02:11:01;149.63;;;84.75;;
31390;SDS011;18022;45.492;11.548;2023-02-19T02:13:28;140.57;;;81.28;;
31390;SDS011;18022;45.492;11.548;2023-02-19T02:26:43;137.23;;;76.45;;
31390;SDS011;18022;45.492;11.548;2023-02-19T02:34:13;142.98;;;78.57;;
31390;SDS011;18022;45.492;11.548;2023-02-19T02:36:42;143.40;;;78.03;;
31390;SDS011;18022;45.492;11.548;2023-02-19T02:39:10;144.13;;;79.75;;
31390;SDS011;18022;45.492;11.548;2023-02-19T02:41:43;135.90;;;75.97;;
31390;SDS011;18022;45.492;11.548;2023-02-19T02:44:10;139.50;;;76.70;;
31390;SDS011;18022;45.492;11.548;2023-02-19T02:46:37;145.38;;;81.50;;
31390;SDS011;18022;45.492;11.548;2023-02-19T02:49:07;132.60;;;75.47;;
31390;SDS011;18022;45.492;11.548;2023-02-19T02:51:35;136.38;;;77.05;;
31390;SDS011;18022;45.492;11.548;2023-02-19T02:54:16;139.73;;;78.45;;
31390;SDS011;18022;45.492;11.548;2023-02-19T02:57:01;147.82;;;80.47;;
31390;SDS011;18022;45.492;11.548;2023-02-19T02:59:30;143.63;;;81.95;;
31390;SDS011;18022;45.492;11.548;2023-02-19T03:01:58;144.32;;;79.85;;
31390;SDS011;18022;45.492;11.548;2023-02-19T03:07:48;138.20;;;77.20;;
31390;SDS011;18022;45.492;11.548;2023-02-19T03:10:16;147.35;;;78.97;;
31390;SDS011;18022;45.492;11.548;2023-02-19T03:12:43;139.25;;;77.13;;
31390;SDS011;18022;45.492;11.548;2023-02-19T03:15:31;133.05;;;75.38;;
31390;SDS011;18022;45.492;11.548;2023-02-19T03:18:17;127.13;;;73.43;;
31390;SDS011;18022;45.492;11.548;2023-02-19T03:21:02;134.98;;;77.30;;
31390;SDS011;18022;45.492;11.548;2023-02-19T03:23:30;135.55;;;77.03;;
31390;SDS011;18022;45.492;11.548;2023-02-19T03:26:16;133.88;;;75.80;;
31390;SDS011;18022;45.492;11.548;2023-02-19T03:28:44;139.65;;;78.63;;
31390;SDS011;18022;45.492;11.548;2023-02-19T03:31:30;139.15;;;79.80;;
31390;SDS011;18022;45.492;11.548;2023-02-19T03:34:02;151.43;;;79.82;;
31390;SDS011;18022;45.492;11.548;2023-02-19T03:36:34;141.45;;;80.75;;
31390;SDS011;18022;45.492;11.548;2023-02-19T03:39:04;145.25;;;80.07;;
31390;SDS011;18022;45.492;11.548;2023-02-19T03:41:36;143.95;;;81.65;;
31390;SDS011;18022;45.492;11.548;2023-02-19T03:44:10;146.52;;;81.93;;
31390;SDS011;18022;45.492;11.548;2023-02-19T03:46:44;148.82;;;82.53;;
31390;SDS011;18022;45.492;11.548;2023-02-19T03:49:24;154.77;;;83.82;;
31390;SDS011;18022;45.492;11.548;2023-02-19T03:51:53;145.90;;;83.13;;
31390;SDS011;18022;45.492;11.548;2023-02-19T03:54:22;148.93;;;83.10;;
31390;SDS011;18022;45.492;11.548;2023-02-19T03:56:58;141.85;;;79.82;;
31390;SDS011;18022;45.492;11.548;2023-02-19T03:59:28;146.80;;;82.40;;
31390;SDS011;18022;45.492;11.548;2023-02-19T04:02:08;150.15;;;81.38;;
31390;SDS011;18022;45.492;11.548;2023-02-19T04:04:37;153.50;;;82.90;;
31390;SDS011;18022;45.492;11.548;2023-02-19T04:07:04;146.32;;;81.07;;
31390;SDS011;18022;45.492;11.548;2023-02-19T04:09:35;147.60;;;81.00;;
31390;SDS011;18022;45.492;11.548;2023-02-19T04:12:04;141.85;;;78.72;;
31390;SDS011;18022;45.492;11.548;2023-02-19T04:14:32;137.65;;;78.03;;
31390;SDS011;18022;45.492;11.548;2023-02-19T04:17:00;135.45;;;76.32;;
31390;SDS011;18022;45.492;11.548;2023-02-19T04:19:27;134.40;;;77.50;;
31390;SDS011;18022;45.492;11.548;2023-02-19T04:21:55;138.82;;;78.28;;
31390;SDS011;18022;45.492;11.548;2023-02-19T04:24:23;145.20;;;80.75;;
31390;SDS011;18022;45.492;11.548;2023-02-19T04:26:51;145.38;;;80.95;;
31390;SDS011;18022;45.492;11.548;2023-02-19T04:29:17;155.68;;;84.40;;
31390;SDS011;18022;45.492;11.548;2023-02-19T04:31:43;166.70;;;89.80;;
31390;SDS011;18022;45.492;11.548;2023-02-19T04:34:09;176.68;;;96.93;;
31390;SDS011;18022;45.492;11.548;2023-02-19T04:36:35;170.35;;;95.78;;
31390;SDS011;18022;45.492;11.548;2023-02-19T04:39:02;154.75;;;88.07;;
31390;SDS011;18022;45.492;11.548;2023-02-19T04:41:28;156.40;;;87.43;;
31390;SDS011;18022;45.492;11.548;2023-02-19T04:43:54;153.10;;;87.07;;
31390;SDS011;18022;45.492;11.548;2023-02-19T04:46:20;158.77;;;88.53;;
31390;SDS011;18022;45.492;11.548;2023-02-19T04:48:46;153.05;;;85.72;;
31390;SDS011;18022;45.492;11.548;2023-02-19T04:51:12;152.30;;;83.82;;
31390;SDS011;18022;45.492;11.548;2023-02-19T04:53:38;153.80;;;87.25;;
31390;SDS011;18022;45.492;11.548;2023-02-19T04:56:05;152.10;;;82.85;;
31390;SDS011;18022;45.492;11.548;2023-02-19T04:58:31;146.38;;;84.25;;
31390;SDS011;18022;45.492;11.548;2023-02-19T05:00:58;140.45;;;77.65;;
31390;SDS011;18022;45.492;11.548;2023-02-19T05:03:24;145.38;;;80.85;;
31390;SDS011;18022;45.492;11.548;2023-02-19T05:05:50;148.20;;;83.03;;
31390;SDS011;18022;45.492;11.548;2023-02-19T05:08:16;148.43;;;82.30;;
31390;SDS011;18022;45.492;11.548;2023-02-19T05:10:42;155.07;;;85.13;;
31390;SDS011;18022;45.492;11.548;2023-02-19T05:13:08;159.95;;;86.57;;
31390;SDS011;18022;45.492;11.548;2023-02-19T05:15:34;152.75;;;86.05;;
31390;SDS011;18022;45.492;11.548;2023-02-19T05:18:00;147.18;;;83.38;;
31390;SDS011;18022;45.492;11.548;2023-02-19T05:20:26;151.27;;;82.45;;
31390;SDS011;18022;45.492;11.548;2023-02-19T05:22:53;154.98;;;83.78;;
31390;SDS011;18022;45.492;11.548;2023-02-19T05:25:19;148.35;;;80.45;;
31390;SDS011;18022;45.492;11.548;2023-02-19T05:27:45;147.02;;;81.43;;
31390;SDS011;18022;45.492;11.548;2023-02-19T05:30:11;148.25;;;81.18;;
31390;SDS011;18022;45.492;11.548;2023-02-19T05:32:37;142.43;;;80.10;;
31390;SDS011;18022;45.492;11.548;2023-02-19T05:35:03;149.95;;;79.70;;
31390;SDS011;18022;45.492;11.548;2023-02-19T05:37:30;144.55;;;80.63;;
31390;SDS011;18022;45.492;11.548;2023-02-19T05:39:56;152.73;;;82.30;;
31390;SDS011;18022;45.492;11.548;2023-02-19T05:42:22;148.18;;;81.90;;
31390;SDS011;18022;45.492;11.548;2023-02-19T05:44:48;149.30;;;81.30;;
31390;SDS011;18022;45.492;11.548;2023-02-19T05:47:14;166.38;;;86.97;;
31390;SDS011;18022;45.492;11.548;2023-02-19T05:49:40;170.43;;;90.45;;
31390;SDS011;18022;45.492;11.548;2023-02-19T05:52:06;159.25;;;86.50;;
31390;SDS011;18022;45.492;11.548;2023-02-19T05:54:32;141.07;;;80.90;;
31390;SDS011;18022;45.492;11.548;2023-02-19T05:56:58;139.60;;;79.85;;
31390;SDS011;18022;45.492;11.548;2023-02-19T05:59:24;143.73;;;79.85;;
31390;SDS011;18022;45.492;11.548;2023-02-19T06:01:52;150.13;;;80.17;;
31390;SDS011;18022;45.492;11.548;2023-02-19T06:04:18;137.85;;;78.15;;
31390;SDS011;18022;45.492;11.548;2023-02-19T06:06:45;134.23;;;75.13;;
31390;SDS011;18022;45.492;11.548;2023-02-19T06:09:11;144.77;;;78.85;;
31390;SDS011;18022;45.492;11.548;2023-02-19T06:11:37;144.40;;;77.15;;
31390;SDS011;18022;45.492;11.548;2023-02-19T06:14:04;142.57;;;78.05;;
31390;SDS011;18022;45.492;11.548;2023-02-19T06:16:30;141.82;;;79.80;;
31390;SDS011;18022;45.492;11.548;2023-02-19T06:18:58;149.95;;;82.68;;
31390;SDS011;18022;45.492;11.548;2023-02-19T06:21:24;141.23;;;80.88;;
31390;SDS011;18022;45.492;11.548;2023-02-19T06:23:50;135.68;;;77.03;;
31390;SDS011;18022;45.492;11.548;2023-02-19T06:26:22;134.02;;;75.30;;
31390;SDS011;18022;45.492;11.548;2023-02-19T06:28:49;138.18;;;76.82;;
31390;SDS011;18022;45.492;11.548;2023-02-19T06:31:16;134.73;;;75.78;;
31390;SDS011;18022;45.492;11.548;2023-02-19T06:33:42;141.98;;;77.20;;
31390;SDS011;18022;45.492;11.548;2023-02-19T06:36:12;142.27;;;79.78;;
31390;SDS011;18022;45.492;11.548;2023-02-19T06:38:39;139.25;;;79.55;;
31390;SDS011;18022;45.492;11.548;2023-02-19T06:41:05;142.60;;;78.25;;
31390;SDS011;18022;45.492;11.548;2023-02-19T06:43:31;145.73;;;80.13;;
31390;SDS011;18022;45.492;11.548;2023-02-19T06:45:58;144.88;;;80.30;;
31390;SDS011;18022;45.492;11.548;2023-02-19T06:48:25;144.15;;;80.30;;
31390;SDS011;18022;45.492;11.548;2023-02-19T06:50:51;147.40;;;81.40;;
31390;SDS011;18022;45.492;11.548;2023-02-19T06:53:17;155.25;;;84.50;;
31390;SDS011;18022;45.492;11.548;2023-02-19T06:55:43;170.77;;;95.03;;
31390;SDS011;18022;45.492;11.548;2023-02-19T06:58:09;163.82;;;89.88;;
31390;SDS011;18022;45.492;11.548;2023-02-19T07:00:35;160.32;;;87.45;;
31390;SDS011;18022;45.492;11.548;2023-02-19T07:03:01;153.02;;;87.30;;
31390;SDS011;18022;45.492;11.548;2023-02-19T07:05:27;156.63;;;89.18;;
31390;SDS011;18022;45.492;11.548;2023-02-19T07:07:53;159.57;;;87.93;;
31390;SDS011;18022;45.492;11.548;2023-02-19T07:10:19;156.07;;;87.22;;
31390;SDS011;18022;45.492;11.548;2023-02-19T07:12:45;156.05;;;86.75;;
31390;SDS011;18022;45.492;11.548;2023-02-19T07:15:11;163.07;;;88.85;;
31390;SDS011;18022;45.492;11.548;2023-02-19T07:17:37;165.70;;;90.47;;
31390;SDS011;18022;45.492;11.548;2023-02-19T07:20:04;178.68;;;93.57;;
31390;SDS011;18022;45.492;11.548;2023-02-19T07:22:30;177.25;;;92.35;;
31390;SDS011;18022;45.492;11.548;2023-02-19T07:24:56;148.43;;;82.80;;
31390;SDS011;18022;45.492;11.548;2023-02-19T07:27:22;151.20;;;81.90;;
31390;SDS011;18022;45.492;11.548;2023-02-19T07:29:48;154.73;;;82.53;;
31390;SDS011;18022;45.492;11.548;2023-02-19T07:32:14;154.07;;;85.65;;
31390;SDS011;18022;45.492;11.548;2023-02-19T07:34:40;151.65;;;83.85;;
31390;SDS011;18022;45.492;11.548;2023-02-19T07:37:06;155.65;;;85.25;;
31390;SDS011;18022;45.492;11.548;2023-02-19T07:39:32;144.02;;;81.43;;
31390;SDS011;18022;45.492;11.548;2023-02-19T07:41:58;160.55;;;85.55;;
31390;SDS011;18022;45.492;11.548;2023-02-19T07:44:24;161.02;;;84.38;;
31390;SDS011;18022;45.492;11.548;2023-02-19T07:46:50;153.13;;;86.60;;
31390;SDS011;18022;45.492;11.548;2023-02-19T07:49:16;159.48;;;85.82;;
31390;SDS011;18022;45.492;11.548;2023-02-19T07:51:42;165.55;;;87.57;;
31390;SDS011;18022;45.492;11.548;2023-02-19T07:54:09;158.68;;;87.90;;
31390;SDS011;18022;45.492;11.548;2023-02-19T07:56:35;167.40;;;89.40;;
31390;SDS011;18022;45.492;11.548;2023-02-19T07:59:01;167.48;;;90.47;;
31390;SDS011;18022;45.492;11.548;2023-02-19T08:01:27;174.75;;;92.90;;
31390;SDS011;18022;45.492;11.548;2023-02-19T08:04:12;173.18;;;92.43;;
31390;SDS011;18022;45.492;11.548;2023-02-19T08:06:39;177.27;;;95.15;;
31390;SDS011;18022;45.492;11.548;2023-02-19T08:09:05;178.40;;;95.07;;
31390;SDS011;18022;45.492;11.548;2023-02-19T08:11:31;178.02;;;95.47;;
31390;SDS011;18022;45.492;11.548;2023-02-19T08:14:16;177.95;;;95.78;;
31390;SDS011;18022;45.492;11.548;2023-02-19T08:16:49;180.70;;;95.78;;
31390;SDS011;18022;45.492;11.548;2023-02-19T08:19:16;172.13;;;92.45;;
31390;SDS011;18022;45.492;11.548;2023-02-19T08:21:42;74.40;;;44.08;;
31390;SDS011;18022;45.492;11.548;2023-02-19T08:24:08;83.60;;;49.75;;
31390;SDS011;18022;45.492;11.548;2023-02-19T08:26:35;188.82;;;99.78;;
31390;SDS011;18022;45.492;11.548;2023-02-19T08:29:01;171.18;;;89.13;;
31390;SDS011;18022;45.492;11.548;2023-02-19T08:31:28;175.70;;;94.13;;
31390;SDS011;18022;45.492;11.548;2023-02-19T08:33:54;173.15;;;92.38;;
31390;SDS011;18022;45.492;11.548;2023-02-19T08:36:20;178.20;;;92.53;;
31390;SDS011;18022;45.492;11.548;2023-02-19T08:38:46;182.00;;;94.18;;
31390;SDS011;18022;45.492;11.548;2023-02-19T08:41:12;177.93;;;89.35;;
31390;SDS011;18022;45.492;11.548;2023-02-19T08:43:39;177.00;;;90.65;;
31390;SDS011;18022;45.492;11.548;2023-02-19T08:46:05;178.15;;;88.88;;
31390;SDS011;18022;45.492;11.548;2023-02-19T08:48:34;178.25;;;90.82;;
31390;SDS011;18022;45.492;11.548;2023-02-19T08:51:00;183.68;;;93.07;;
31390;SDS011;18022;45.492;11.548;2023-02-19T08:53:31;182.13;;;89.43;;
31390;SDS011;18022;45.492;11.548;2023-02-19T08:55:57;185.05;;;90.07;;
31390;SDS011;18022;45.492;11.548;2023-02-19T08:58:24;185.32;;;91.03;;
31390;SDS011;18022;45.492;11.548;2023-02-19T09:00:50;182.75;;;91.60;;
31390;SDS011;18022;45.492;11.548;2023-02-19T09:03:17;182.85;;;91.07;;
31390;SDS011;18022;45.492;11.548;2023-02-19T09:05:43;199.60;;;100.03;;
31390;SDS011;18022;45.492;11.548;2023-02-19T09:08:11;194.32;;;98.22;;
31390;SDS011;18022;45.492;11.548;2023-02-19T09:10:37;200.60;;;100.18;;
31390;SDS011;18022;45.492;11.548;2023-02-19T09:13:03;193.93;;;96.00;;
31390;SDS011;18022;45.492;11.548;2023-02-19T09:15:30;181.15;;;93.40;;
31390;SDS011;18022;45.492;11.548;2023-02-19T09:17:57;183.13;;;91.32;;
31390;SDS011;18022;45.492;11.548;2023-02-19T09:20:23;180.93;;;89.78;;
31390;SDS011;18022;45.492;11.548;2023-02-19T09:22:49;183.95;;;89.20;;
31390;SDS011;18022;45.492;11.548;2023-02-19T09:25:15;179.13;;;85.63;;
31390;SDS011;18022;45.492;11.548;2023-02-19T09:27:41;175.57;;;82.90;;
31390;SDS011;18022;45.492;11.548;2023-02-19T09:30:07;175.57;;;86.15;;
31390;SDS011;18022;45.492;11.548;2023-02-19T09:32:33;176.73;;;84.18;;
31390;SDS011;18022;45.492;11.548;2023-02-19T09:34:59;176.68;;;84.15;;
31390;SDS011;18022;45.492;11.548;2023-02-19T09:37:26;170.40;;;83.97;;
31390;SDS011;18022;45.492;11.548;2023-02-19T09:39:53;174.50;;;85.55;;
31390;SDS011;18022;45.492;11.548;2023-02-19T09:42:26;166.52;;;81.35;;
31390;SDS011;18022;45.492;11.548;2023-02-19T09:44:54;178.80;;;82.70;;
31390;SDS011;18022;45.492;11.548;2023-02-19T09:47:21;161.73;;;80.27;;
31390;SDS011;18022;45.492;11.548;2023-02-19T09:49:48;169.60;;;80.57;;
31390;SDS011;18022;45.492;11.548;2023-02-19T09:54:48;179.88;;;89.45;;
31390;SDS011;18022;45.492;11.548;2023-02-19T09:57:16;166.40;;;83.50;;
31390;SDS011;18022;45.492;11.548;2023-02-19T09:59:44;159.27;;;80.60;;
31390;SDS011;18022;45.492;11.548;2023-02-19T10:02:18;163.95;;;84.22;;
31390;SDS011;18022;45.492;11.548;2023-02-19T10:04:47;167.07;;;83.57;;
31390;SDS011;18022;45.492;11.548;2023-02-19T10:07:18;162.15;;;86.05;;
31390;SDS011;18022;45.492;11.548;2023-02-19T10:09:47;165.65;;;83.38;;
31390;SDS011;18022;45.492;11.548;2023-02-19T10:12:17;179.60;;;88.85;;
31390;SDS011;18022;45.492;11.548;2023-02-19T10:14:45;163.45;;;80.35;;
31390;SDS011;18022;45.492;11.548;2023-02-19T10:17:33;162.38;;;82.65;;
31390;SDS011;18022;45.492;11.548;2023-02-19T10:19:59;162.40;;;83.40;;
31390;SDS011;18022;45.492;11.548;2023-02-19T10:22:28;157.43;;;78.22;;
31390;SDS011;18022;45.492;11.548;2023-02-19T10:24:54;145.18;;;74.00;;
31390;SDS011;18022;45.492;11.548;2023-02-19T10:27:21;138.30;;;70.82;;
31390;SDS011;18022;45.492;11.548;2023-02-19T10:29:48;139.38;;;73.07;;
31390;SDS011;18022;45.492;11.548;2023-02-19T10:32:18;133.57;;;70.88;;
31390;SDS011;18022;45.492;11.548;2023-02-19T10:35:30;136.25;;;71.45;;
31390;SDS011;18022;45.492;11.548;2023-02-19T10:37:41;155.98;;;78.90;;
31390;SDS011;18022;45.492;11.548;2023-02-19T10:40:18;151.57;;;81.57;;
31390;SDS011;18022;45.492;11.548;2023-02-19T10:42:58;171.77;;;92.45;;
31390;SDS011;18022;45.492;11.548;2023-02-19T10:45:32;160.20;;;84.88;;
31390;SDS011;18022;45.492;11.548;2023-02-19T10:47:58;160.02;;;86.53;;
31390;SDS011;18022;45.492;11.548;2023-02-19T10:50:26;142.20;;;77.07;;
31390;SDS011;18022;45.492;11.548;2023-02-19T10:52:54;157.73;;;83.60;;
31390;SDS011;18022;45.492;11.548;2023-02-19T10:55:25;137.75;;;71.85;;
31390;SDS011;18022;45.492;11.548;2023-02-19T10:57:53;150.73;;;77.57;;
31390;SDS011;18022;45.492;11.548;2023-02-19T11:00:23;155.25;;;81.22;;
31390;SDS011;18022;45.492;11.548;2023-02-19T11:02:52;156.30;;;81.72;;
31390;SDS011;18022;45.492;11.548;2023-02-19T11:05:36;176.77;;;89.70;;
31390;SDS011;18022;45.492;11.548;2023-02-19T11:08:14;153.48;;;82.80;;
31390;SDS011;18022;45.492;11.548;2023-02-19T11:10:42;154.15;;;77.70;;
31390;SDS011;18022;45.492;11.548;2023-02-19T11:13:13;152.68;;;77.97;;
31390;SDS011;18022;45.492;11.548;2023-02-19T11:15:40;173.68;;;91.38;;
31390;SDS011;18022;45.492;11.548;2023-02-19T11:23:16;174.45;;;93.47;;
31390;SDS011;18022;45.492;11.548;2023-02-19T11:25:44;165.82;;;84.72;;
31390;SDS011;18022;45.492;11.548;2023-02-19T11:28:26;159.15;;;82.60;;
31390;SDS011;18022;45.492;11.548;2023-02-19T11:30:53;152.68;;;81.45;;
31390;SDS011;18022;45.492;11.548;2023-02-19T11:33:20;166.60;;;91.13;;
31390;SDS011;18022;45.492;11.548;2023-02-19T11:36:15;160.20;;;83.72;;
31390;SDS011;18022;45.492;11.548;2023-02-19T11:38:45;206.65;;;103.18;;
31390;SDS011;18022;45.492;11.548;2023-02-19T11:49:06;172.98;;;88.97;;
31390;SDS011;18022;45.492;11.548;2023-02-19T11:56:48;184.75;;;91.85;;
31390;SDS011;18022;45.492;11.548;2023-02-19T11:59:27;190.00;;;94.90;;
31390;SDS011;18022;45.492;11.548;2023-02-19T12:16:48;201.75;;;99.63;;
31390;SDS011;18022;45.492;11.548;2023-02-19T12:24:32;182.65;;;91.03;;
31390;SDS011;18022;45.492;11.548;2023-02-19T12:45:30;198.77;;;98.45;;
31390;SDS011;18022;45.492;11.548;2023-02-19T12:47:58;197.15;;;96.05;;
31390;SDS011;18022;45.492;11.548;2023-02-19T12:50:26;200.52;;;97.95;;
31390;SDS011;18022;45.492;11.548;2023-02-19T12:55:45;220.73;;;106.55;;
31390;SDS011;18022;45.492;11.548;2023-02-19T12:58:13;205.27;;;102.57;;
31390;SDS011;18022;45.492;11.548;2023-02-19T13:03:13;188.25;;;97.60;;
31390;SDS011;18022;45.492;11.548;2023-02-19T13:10:59;193.40;;;98.63;;
31390;SDS011;18022;45.492;11.548;2023-02-19T13:13:37;197.13;;;98.50;;
31390;SDS011;18022;45.492;11.548;2023-02-19T13:16:06;196.98;;;100.80;;
31390;SDS011;18022;45.492;11.548;2023-02-19T13:18:36;196.77;;;98.85;;
31390;SDS011;18022;45.492;11.548;2023-02-19T13:21:07;190.27;;;100.15;;
31390;SDS011;18022;45.492;11.548;2023-02-19T13:23:37;196.25;;;98.47;;
31390;SDS011;18022;45.492;11.548;2023-02-19T13:36:54;187.60;;;95.38;;
31390;SDS011;18022;45.492;11.548;2023-02-19T13:39:20;180.20;;;91.57;;
31390;SDS011;18022;45.492;11.548;2023-02-19T13:44:17;173.40;;;88.95;;
31390;SDS011;18022;45.492;11.548;2023-02-19T13:52:01;160.80;;;82.60;;
31390;SDS011;18022;45.492;11.548;2023-02-19T13:54:32;172.57;;;89.50;;
31390;SDS011;18022;45.492;11.548;2023-02-19T13:59:44;181.93;;;91.97;;
31390;SDS011;18022;45.492;11.548;2023-02-19T14:04:59;174.60;;;89.05;;
31390;SDS011;18022;45.492;11.548;2023-02-19T14:09:52;180.30;;;89.88;;
31390;SDS011;18022;45.492;11.548;2023-02-19T14:12:19;179.40;;;89.10;;
31390;SDS011;18022;45.492;11.548;2023-02-19T14:14:49;176.02;;;89.05;;
31390;SDS011;18022;45.492;11.548;2023-02-19T14:30:30;171.15;;;87.70;;
31390;SDS011;18022;45.492;11.548;2023-02-19T14:32:57;180.25;;;86.03;;
31390;SDS011;18022;45.492;11.548;2023-02-19T14:35:42;207.90;;;90.25;;
31390;SDS011;18022;45.492;11.548;2023-02-19T14:38:13;173.45;;;87.00;;
31390;SDS011;18022;45.492;11.548;2023-02-19T14:40:41;178.02;;;86.68;;
31390;SDS011;18022;45.492;11.548;2023-02-19T14:43:13;185.50;;;83.83;;
31390;SDS011;18022;45.492;11.548;2023-02-19T14:45:44;184.50;;;83.70;;
31390;SDS011;18022;45.492;11.548;2023-02-19T14:48:17;158.82;;;83.95;;
31390;SDS011;18022;45.492;11.548;2023-02-19T14:50:45;198.82;;;86.90;;
31390;SDS011;18022;45.492;11.548;2023-02-19T14:53:13;177.45;;;85.05;;
31390;SDS011;18022;45.492;11.548;2023-02-19T14:55:40;175.95;;;87.30;;
31390;SDS011;18022;45.492;11.548;2023-02-19T14:58:18;167.23;;;87.93;;
31390;SDS011;18022;45.492;11.548;2023-02-19T15:00:46;210.35;;;103.55;;
31390;SDS011;18022;45.492;11.548;2023-02-19T15:05:58;206.45;;;101.63;;
31390;SDS011;18022;45.492;11.548;2023-02-19T15:08:27;173.95;;;87.28;;
31390;SDS011;18022;45.492;11.548;2023-02-19T15:10:54;175.00;;;89.18;;
31390;SDS011;18022;45.492;11.548;2023-02-19T15:13:23;172.05;;;88.15;;
31390;SDS011;18022;45.492;11.548;2023-02-19T15:15:50;164.35;;;86.25;;
31390;SDS011;18022;45.492;11.548;2023-02-19T15:18:18;185.13;;;93.20;;
31390;SDS011;18022;45.492;11.548;2023-02-19T15:20:45;120.88;;;63.42;;
31390;SDS011;18022;45.492;11.548;2023-02-19T15:23:13;176.63;;;85.93;;
31390;SDS011;18022;45.492;11.548;2023-02-19T15:25:43;194.63;;;94.00;;
31390;SDS011;18022;45.492;11.548;2023-02-19T15:30:45;180.80;;;87.97;;
31390;SDS011;18022;45.492;11.548;2023-02-19T15:33:15;168.88;;;86.75;;
31390;SDS011;18022;45.492;11.548;2023-02-19T15:35:41;190.88;;;97.28;;
31390;SDS011;18022;45.492;11.548;2023-02-19T15:38:12;237.10;;;120.03;;
31390;SDS011;18022;45.492;11.548;2023-02-19T15:40:38;175.10;;;94.47;;
31390;SDS011;18022;45.492;11.548;2023-02-19T15:43:09;182.15;;;95.03;;
31390;SDS011;18022;45.492;11.548;2023-02-19T15:45:40;170.02;;;85.32;;
31390;SDS011;18022;45.492;11.548;2023-02-19T15:48:12;165.10;;;84.50;;
31390;SDS011;18022;45.492;11.548;2023-02-19T15:50:40;178.90;;;96.25;;
31390;SDS011;18022;45.492;11.548;2023-02-19T15:53:17;174.23;;;86.68;;
31390;SDS011;18022;45.492;11.548;2023-02-19T15:56:00;176.65;;;86.35;;
31390;SDS011;18022;45.492;11.548;2023-02-19T15:58:31;184.73;;;95.40;;
31390;SDS011;18022;45.492;11.548;2023-02-19T16:01:03;176.57;;;88.07;;
31390;SDS011;18022;45.492;11.548;2023-02-19T16:03:32;171.13;;;89.55;;
31390;SDS011;18022;45.492;11.548;2023-02-19T16:06:09;172.65;;;87.20;;
31390;SDS011;18022;45.492;11.548;2023-02-19T16:08:39;164.13;;;84.30;;
31390;SDS011;18022;45.492;11.548;2023-02-19T16:13:47;173.23;;;88.00;;
31390;SDS011;18022;45.492;11.548;2023-02-19T16:18:42;174.07;;;86.63;;
31390;SDS011;18022;45.492;11.548;2023-02-19T16:21:09;179.98;;;86.97;;
31390;SDS011;18022;45.492;11.548;2023-02-19T16:23:40;168.35;;;84.97;;